Portada
METAR-TAF:

METAR-TAF

Aeroports :

Toamasina, Madagascar

latitud: 18-07S, longitud: 049-24E, altitud: 5 m

Observació

L'informe es va fer fa 1 hora i 4 minuts, a les 09:00 UTC
Vent 10 kt del Sud, variant entre Sud-Est i Sud-Oest
Temperatura 32°C
Humitat 59%
Pressió 1011 hPa
Visibilitat 10 km o més
Núvols disperses a una alçada de 2000 ft, Cumulus congestus.

METAR: FMMT 220900Z 18010KT 130V220 9999 SCT020TCU 32/23 Q1011 NOSIG

Hora: 13:04 (10:04 UTC)

Pronòstic

L'informe es va fer fa 5 hores i 4 minuts, a les 05:00 UTC
Pronòstic vàlid del 22 a les 06 UTC al 23 a les 06 UTC
Vent 10 kt del Sud/Sud-Oest
Visibilitat 10 km o més
Núvols disperses a una alçada de 1700 ft
Núvols disperses a una alçada de 3300 ft
Probabilitat 30% :
Temporalment
l' 22 a les 20 UTC al 23 a les 06 UTC
Visibilitat: 4000 m
pluja

TAF: FMMT 220500Z 2206/2306 20010KT 9999 SCT017 SCT033 PROB30 TEMPO 2220/2306 4000 RA

Observacions i pronòstics meteorològics de més de 4000 aeroports (METAR i TAF).

Les estacions disponibles són els punts grocs i vermells al mapa.

Posi el ratolí al punt desitjat per veure el nom de l'estació.

Feu clic per veure les observacions i els pronòstics meteorològics.

Per canviar el mapa: feu clic els botons verds amb una creu de color negre per apropar; al botó verd amb un guió per allunyar la imatge; o en les fletxes verdes per a mapes adjacents.


METAR-TAF: